Time;durP1;ratioP1;P1;durP2;ratioP2;P2;SDS_P1;SDS_P2;PMS_P1;PMS_P2;Temp;Humidity;BMP_temperature;BMP_pressure;BME280_temperature;BME280_humidity;BME280_pressure;Samples;Min_cycle;Max_cycle;Signal;HPM_P1;HPM_P2
2022/05/04 00:02:23;;;;;;;1.98;1.30;;;;;;;6.54;97.28;101693.56;6270092;28;20053;-72
2022/05/04 00:05:25;;;;;;;2.33;1.60;;;;;;;6.54;97.34;101695.28;6270953;28;20075;-71
2022/05/04 00:08:26;;;;;;;1.77;1.20;;;;;;;6.52;97.70;101695.34;6269012;28;20128;-70
2022/05/04 00:11:27;;;;;;;1.88;1.30;;;;;;;6.49;97.74;101691.94;6270182;28;20048;-73
2022/05/04 00:14:30;;;;;;;4.07;1.42;;;;;;;6.45;97.42;101705.94;6270546;28;20440;-70
2022/05/04 00:17:31;;;;;;;3.88;1.80;;;;;;;6.44;98.57;101709.44;6270619;28;20049;-71
2022/05/04 00:20:33;;;;;;;1.48;0.98;;;;;;;6.35;99.07;101700.06;6270082;28;20049;-72
2022/05/04 00:23:34;;;;;;;3.10;1.85;;;;;;;6.32;99.65;101705.34;6273602;28;20056;-70
2022/05/04 00:26:36;;;;;;;5.20;1.75;;;;;;;6.30;99.42;101697.53;6275109;28;20056;-70
2022/05/04 00:29:38;;;;;;;7.00;1.58;;;;;;;6.24;100.00;101700.28;6274805;28;20413;-73
2022/05/04 00:32:41;;;;;;;2.33;1.33;;;;;;;6.28;100.00;101711.53;6271984;28;20052;-71
2022/05/04 00:35:43;;;;;;;5.32;1.63;;;;;;;6.11;100.00;101709.25;6274965;28;20057;-71
2022/05/04 00:38:44;;;;;;;3.10;1.40;;;;;;;6.07;100.00;101710.19;6275107;28;20049;-70
2022/05/04 00:41:46;;;;;;;3.53;1.70;;;;;;;6.05;100.00;101706.75;6273690;28;20060;-70
2022/05/04 00:44:51;;;;;;;3.90;1.70;;;;;;;6.04;100.00;101707.63;6274975;28;20049;-71
2022/05/04 00:47:52;;;;;;;4.30;1.58;;;;;;;6.03;100.00;101700.69;6274502;28;20055;-71
2022/05/04 00:50:54;;;;;;;2.65;1.40;;;;;;;5.99;100.00;101702.50;6273773;28;20049;-70
2022/05/04 00:53:56;;;;;;;2.00;1.40;;;;;;;5.97;100.00;101708.66;6274292;28;20049;-72
2022/05/04 00:56:57;;;;;;;2.08;1.38;;;;;;;5.89;100.00;101703.53;6252783;28;20488;-70
2022/05/04 00:59:59;;;;;;;5.43;1.75;;;;;;;5.83;100.00;101704.50;6265754;28;20053;-70
2022/05/04 01:03:00;;;;;;;2.85;1.55;;;;;;;5.87;100.00;101699.25;6256976;28;20134;-70
2022/05/04 01:06:02;;;;;;;3.33;1.35;;;;;;;5.91;100.00;101706.13;6260362;28;20050;-72
2022/05/04 01:09:03;;;;;;;2.78;1.40;;;;;;;5.85;100.00;101700.09;6249324;28;20053;-72
2022/05/04 01:12:05;;;;;;;4.43;1.38;;;;;;;5.75;100.00;101697.72;6248877;28;20501;-71
2022/05/04 01:15:09;;;;;;;2.55;1.60;;;;;;;5.63;100.00;101696.16;6249263;28;20056;-70
2022/05/04 01:18:11;;;;;;;10.70;1.88;;;;;;;5.58;100.00;101696.25;6257231;28;20041;-70
2022/05/04 01:21:12;;;;;;;4.72;1.73;;;;;;;5.55;100.00;101703.28;6262039;28;20052;-71
2022/05/04 01:24:14;;;;;;;5.10;2.10;;;;;;;5.58;100.00;101701.47;6266546;28;20057;-70
2022/05/04 01:27:16;;;;;;;2.38;1.30;;;;;;;5.59;100.00;101699.75;6248926;28;20409;-70
2022/05/04 01:30:17;;;;;;;4.22;1.85;;;;;;;5.56;100.00;101699.78;6248155;28;20052;-71
2022/05/04 01:33:19;;;;;;;2.65;1.67;;;;;;;5.44;100.00;101695.63;6249306;28;20053;-71
2022/05/04 01:36:20;;;;;;;6.50;1.63;;;;;;;5.44;100.00;101700.84;6248605;28;20054;-70
2022/05/04 01:39:23;;;;;;;8.07;2.05;;;;;;;5.39;100.00;101705.28;6248971;28;20516;-70
2022/05/04 01:42:24;;;;;;;3.90;2.00;;;;;;;5.39;100.00;101688.78;6247980;28;20060;-70
2022/05/04 01:45:25;;;;;;;9.35;2.38;;;;;;;5.41;100.00;101697.44;6248683;28;20132;-71
2022/05/04 01:48:27;;;;;;;11.75;1.73;;;;;;;5.38;100.00;101694.88;6248667;28;20421;-70
2022/05/04 01:51:28;;;;;;;2.83;1.33;;;;;;;5.27;100.00;101689.84;6247922;28;20057;-70
2022/05/04 01:54:31;;;;;;;10.75;2.03;;;;;;;5.19;100.00;101700.38;6248334;28;20049;-70
2022/05/04 01:57:32;;;;;;;3.65;1.48;;;;;;;5.16;100.00;101694.34;6248331;28;20515;-70
2022/05/04 02:00:34;;;;;;;2.15;1.73;;;;;;;5.08;100.00;101694.47;6247728;28;20180;-70
2022/05/04 02:03:35;;;;;;;3.50;2.13;;;;;;;5.03;100.00;101685.88;6249126;28;20041;-70
2022/05/04 02:06:37;;;;;;;3.35;1.88;;;;;;;4.96;100.00;101686.88;6248148;28;20053;-70
2022/05/04 02:09:41;;;;;;;4.95;2.00;;;;;;;5.00;100.00;101691.16;6248085;28;20050;-70
2022/05/04 02:12:43;;;;;;;4.25;2.17;;;;;;;4.94;100.00;101686.88;6247580;28;20057;-70
2022/05/04 02:15:44;;;;;;;7.95;1.98;;;;;;;4.90;100.00;101693.00;6247847;28;20057;-70
2022/05/04 02:18:45;;;;;;;8.52;2.38;;;;;;;4.91;100.00;101691.28;6247947;28;20520;-70
2022/05/04 02:21:46;;;;;;;9.25;1.70;;;;;;;4.89;100.00;101687.81;6246663;28;20053;-70
2022/05/04 02:24:49;;;;;;;3.10;1.65;;;;;;;4.89;100.00;101685.22;6247926;28;20053;-70
2022/05/04 02:27:51;;;;;;;3.40;1.50;;;;;;;4.89;100.00;101690.44;6247505;28;20122;-70
2022/05/04 02:30:52;;;;;;;4.13;1.58;;;;;;;4.89;100.00;101683.47;6246925;28;20060;-70
2022/05/04 02:33:53;;;;;;;4.22;1.70;;;;;;;4.91;100.00;101686.94;6263566;28;20459;-70
2022/05/04 02:40:15;;;;;;;6.50;1.70;;;;;;;4.87;100.00;101693.06;6271749;28;20049;-71
2022/05/04 02:43:17;;;;;;;5.88;1.70;;;;;;;4.87;100.00;101687.84;6246595;28;20057;-71
2022/05/04 02:46:20;;;;;;;7.53;1.90;;;;;;;4.77;100.00;101687.13;6247158;28;20045;-70
2022/05/04 02:49:22;;;;;;;7.55;2.17;;;;;;;4.71;100.00;101684.59;6247149;28;20064;-70
2022/05/04 02:52:23;;;;;;;5.88;1.75;;;;;;;4.71;100.00;101675.94;6261680;28;20052;-71
2022/05/04 02:55:26;;;;;;;7.22;2.42;;;;;;;4.70;100.00;101676.81;6271115;28;20048;-71
2022/05/04 02:58:27;;;;;;;4.53;1.98;;;;;;;4.70;100.00;101676.81;6248253;28;20048;-71
2022/05/04 03:04:48;;;;;;;2.80;1.55;;;;;;;4.69;100.00;101680.31;6251385;28;20049;-70
2022/05/04 03:07:49;;;;;;;8.60;2.10;;;;;;;4.68;100.00;101676.84;6246843;28;20425;-70
2022/05/04 03:14:11;;;;;;;3.63;1.42;;;;;;;4.74;100.00;101675.91;6256155;28;20053;-70
2022/05/04 03:17:13;;;;;;;5.40;1.48;;;;;;;4.76;100.00;101671.50;6246960;28;20057;-70
2022/05/04 03:20:15;;;;;;;3.20;1.85;;;;;;;4.78;100.00;101674.97;6246151;28;20052;-70
2022/05/04 03:23:16;;;;;;;2.78;1.77;;;;;;;4.76;100.00;101676.72;6247498;28;20068;-71
2022/05/04 03:26:19;;;;;;;2.78;1.90;;;;;;;4.72;100.00;101667.22;6266056;28;20049;-70
2022/05/04 03:29:20;;;;;;;4.05;1.98;;;;;;;4.68;100.00;101670.75;6246758;28;20056;-70
2022/05/04 03:32:21;;;;;;;8.65;2.33;;;;;;;4.62;100.00;101657.84;6245881;28;20056;-70
2022/05/04 03:35:23;;;;;;;3.30;1.90;;;;;;;4.50;100.00;101672.75;6246312;28;20444;-70
2022/05/04 03:38:25;;;;;;;3.47;1.65;;;;;;;4.38;100.00;101670.31;6246638;28;20057;-70
2022/05/04 03:41:28;;;;;;;2.10;1.63;;;;;;;4.36;100.00;101665.97;6245810;28;20053;-71
2022/05/04 03:44:29;;;;;;;4.40;2.15;;;;;;;4.36;100.00;101672.06;6246591;28;20073;-71
2022/05/04 03:47:30;;;;;;;5.20;1.88;;;;;;;4.29;100.00;101670.41;6246252;28;20048;-70
2022/05/04 03:50:31;;;;;;;5.70;1.98;;;;;;;4.23;100.00;101671.38;6260974;28;20049;-70
2022/05/04 03:53:33;;;;;;;4.22;1.73;;;;;;;4.23;100.00;101681.78;6270882;28;20061;-71
2022/05/04 03:56:36;;;;;;;6.25;1.80;;;;;;;4.20;100.00;101681.78;6271319;28;20056;-71
2022/05/04 03:59:38;;;;;;;2.85;1.50;;;;;;;4.19;100.00;101677.47;6275746;28;20055;-71
2022/05/04 04:02:39;;;;;;;8.05;1.73;;;;;;;4.25;100.00;101676.53;6275049;28;20052;-71
2022/05/04 04:05:40;;;;;;;4.20;2.00;;;;;;;4.27;100.00;101683.47;6276130;28;20063;-70
2022/05/04 04:08:42;;;;;;;5.30;1.75;;;;;;;4.28;100.00;101682.56;6275475;28;20048;-71
2022/05/04 04:11:45;;;;;;;7.05;1.88;;;;;;;4.21;100.00;101680.06;6275261;28;20061;-70
2022/05/04 04:14:46;;;;;;;2.33;1.63;;;;;;;4.24;100.00;101686.09;6273471;28;20049;-71
2022/05/04 04:17:48;;;;;;;7.50;2.15;;;;;;;4.22;100.00;101682.63;6275331;28;20052;-70
2022/05/04 04:24:09;;;;;;;9.38;2.47;;;;;;;4.27;100.00;101692.97;6274978;28;20049;-71
2022/05/04 04:27:12;;;;;;;3.85;2.22;;;;;;;4.33;100.00;101693.78;6275125;28;20076;-70
2022/05/04 04:30:14;;;;;;;6.70;2.13;;;;;;;4.33;100.00;101691.19;6274963;28;20053;-70
2022/05/04 04:33:15;;;;;;;5.28;2.17;;;;;;;4.32;100.00;101694.66;6274637;28;20048;-71
2022/05/04 04:36:17;;;;;;;5.15;2.17;;;;;;;4.40;100.00;101691.09;6275112;28;20048;-70
2022/05/04 04:39:18;;;;;;;13.55;2.85;;;;;;;4.47;100.00;101695.34;6275031;28;20049;-71
2022/05/04 04:42:21;;;;;;;7.47;2.35;;;;;;;4.49;100.00;101693.56;6271000;28;20065;-71
2022/05/04 04:45:22;;;;;;;5.65;1.98;;;;;;;4.46;100.00;101694.50;6270615;28;20053;-71
2022/05/04 04:48:24;;;;;;;5.75;2.40;;;;;;;4.48;100.00;101702.25;6265695;28;20408;-71
2022/05/04 04:51:25;;;;;;;6.03;2.45;;;;;;;4.58;100.00;101706.47;6272062;28;20037;-71
2022/05/04 04:54:26;;;;;;;8.63;2.58;;;;;;;4.65;100.00;101692.50;6274217;28;20064;-70
2022/05/04 04:57:29;;;;;;;6.00;1.98;;;;;;;4.74;100.00;101702.78;6265360;28;20056;-70
2022/05/04 05:00:32;;;;;;;4.75;2.03;;;;;;;4.78;100.00;101695.81;6248942;28;20049;-70
2022/05/04 05:03:33;;;;;;;3.85;2.15;;;;;;;4.82;100.00;101687.06;6269941;28;20053;-70
2022/05/04 05:06:34;;;;;;;3.67;2.25;;;;;;;4.79;100.00;101687.97;6256384;28;20048;-71
2022/05/04 05:09:35;;;;;;;4.05;1.77;;;;;;;4.82;100.00;101690.53;6274279;28;20057;-70
2022/05/04 05:12:38;;;;;;;4.60;2.67;;;;;;;4.89;100.00;101693.88;6273612;28;20049;-73
2022/05/04 05:19:00;;;;;;;7.63;2.33;;;;;;;4.93;100.00;101690.34;6260223;28;20128;-70
2022/05/04 05:22:01;;;;;;;3.70;1.95;;;;;;;4.98;100.00;101687.69;6248606;28;20045;-69
2022/05/04 05:25:03;;;;;;;3.78;2.28;;;;;;;5.01;100.00;101692.88;6249169;28;20528;-72
2022/05/04 05:28:06;;;;;;;5.70;2.33;;;;;;;5.12;100.00;101687.47;6249255;28;20042;-72
2022/05/04 05:31:08;;;;;;;4.90;2.50;;;;;;;5.18;100.00;101679.56;6248268;28;20049;-70
2022/05/04 05:34:10;;;;;;;4.97;2.70;;;;;;;5.22;100.00;101689.94;6250302;28;20416;-72
2022/05/04 05:37:11;;;;;;;4.63;2.17;;;;;;;5.27;100.00;101693.31;6248758;28;20045;-72
2022/05/04 05:40:13;;;;;;;8.13;2.50;;;;;;;5.30;100.00;101693.25;6248473;28;20072;-72
2022/05/04 05:43:16;;;;;;;5.60;2.70;;;;;;;5.32;100.00;101690.63;6248451;28;20054;-72
2022/05/04 05:46:17;;;;;;;5.80;2.42;;;;;;;5.37;100.00;101695.78;6248516;28;20053;-72
2022/05/04 05:49:19;;;;;;;4.65;2.45;;;;;;;5.40;100.00;101693.09;6248591;28;20497;-72
2022/05/04 05:52:20;;;;;;;4.40;2.53;;;;;;;5.43;100.00;101693.06;6247786;28;20061;-72
2022/05/04 05:55:21;;;;;;;3.17;2.08;;;;;;;5.53;100.00;101692.00;6248585;28;20144;-72
2022/05/04 05:58:24;;;;;;;5.97;2.42;;;;;;;5.65;100.00;101697.00;6249337;28;20061;-72
2022/05/04 06:01:25;;;;;;;6.45;2.25;;;;;;;5.75;100.00;101695.09;6247786;28;20049;-72
2022/05/04 06:04:27;;;;;;;14.45;2.03;;;;;;;5.90;100.00;101696.56;6247880;28;20057;-72
2022/05/04 06:07:28;;;;;;;5.93;2.47;;;;;;;6.04;100.00;101689.34;6248192;28;20052;-72
2022/05/04 06:10:29;;;;;;;5.43;2.15;;;;;;;6.19;100.00;101693.44;6247420;28;20056;-72
2022/05/04 06:13:32;;;;;;;4.05;2.35;;;;;;;6.29;100.00;101697.56;6247835;28;20052;-72
2022/05/04 06:16:33;;;;;;;5.05;2.92;;;;;;;6.37;100.00;101690.44;6247932;28;20068;-72
2022/05/04 06:19:35;;;;;;;4.07;2.17;;;;;;;6.48;100.00;101690.22;6247248;28;20061;-72
2022/05/04 06:22:36;;;;;;;7.15;1.77;;;;;;;6.66;100.00;101688.97;6247082;28;20049;-72
2022/05/04 06:25:38;;;;;;;10.18;2.30;;;;;;;6.90;100.00;101698.00;6270940;28;20412;-72
2022/05/04 06:28:40;;;;;;;4.05;2.05;;;;;;;7.18;100.00;101685.16;6272670;28;20049;-72
2022/05/04 06:35:01;;;;;;;10.20;3.17;;;;;;;7.40;100.00;101690.69;6268848;28;20053;-72
2022/05/04 06:38:02;;;;;;;10.70;2.28;;;;;;;7.45;100.00;101684.47;6251565;28;20262;-72
2022/05/04 06:41:05;;;;;;;10.45;2.53;;;;;;;7.55;100.00;101690.34;6246669;28;20081;-72
2022/05/04 06:44:08;;;;;;;4.03;1.58;;;;;;;7.64;100.00;101684.88;6247116;28;20489;-72
2022/05/04 06:47:10;;;;;;;2.38;1.38;;;;;;;7.73;100.00;101687.25;6247278;28;20053;-72
2022/05/04 06:50:11;;;;;;;7.00;1.88;;;;;;;7.78;100.00;101695.81;6260148;28;20056;-72
2022/05/04 06:53:12;;;;;;;3.85;1.10;;;;;;;7.99;100.00;101698.75;6271250;28;20052;-72
2022/05/04 06:56:14;;;;;;;2.35;0.95;;;;;;;8.17;100.00;101694.75;6272005;28;20064;-72
2022/05/04 06:59:17;;;;;;;4.57;1.60;;;;;;;8.32;100.00;101697.81;6271604;28;20045;-72
2022/05/04 07:02:18;;;;;;;6.38;1.08;;;;;;;8.53;100.00;101700.75;6271365;28;20049;-72
2022/05/04 07:05:20;;;;;;;2.85;1.23;;;;;;;8.63;100.00;101697.81;6271872;28;20049;-72
2022/05/04 07:08:21;;;;;;;5.95;1.80;;;;;;;8.68;100.00;101700.31;6271435;28;20408;-72
2022/05/04 07:11:22;;;;;;;5.15;1.58;;;;;;;8.78;100.00;101706.13;6270071;28;20049;-73
2022/05/04 07:14:25;;;;;;;5.10;1.50;;;;;;;8.86;100.00;101702.34;6264651;28;20052;-74
2022/05/04 07:17:27;;;;;;;8.45;1.40;;;;;;;8.92;100.00;101701.31;6263614;28;20037;-73
2022/05/04 07:20:28;;;;;;;9.00;2.10;;;;;;;8.79;98.65;101690.34;6269291;28;20052;-70
2022/05/04 07:23:30;;;;;;;3.08;1.75;;;;;;;9.00;100.00;101696.69;6268803;28;20049;-71
2022/05/04 07:26:31;;;;;;;3.80;1.88;;;;;;;9.11;99.90;101696.34;6271229;28;20432;-70
2022/05/04 07:29:34;;;;;;;6.03;3.03;;;;;;;9.23;99.24;101692.47;6270984;28;20401;-70
2022/05/04 07:32:35;;;;;;;5.50;2.15;;;;;;;9.15;95.34;101693.56;6261958;28;20500;-70
2022/05/04 07:35:37;;;;;;;5.25;1.83;;;;;;;9.05;95.72;101697.41;6251561;28;20057;-70
2022/05/04 07:38:38;;;;;;;7.45;2.38;;;;;;;9.07;96.13;101690.31;6251516;28;20052;-70
2022/05/04 07:45:02;;;;;;;4.53;1.85;;;;;;;9.19;94.12;101690.84;6276212;28;20045;-71
2022/05/04 07:48:03;;;;;;;4.72;1.77;;;;;;;9.29;92.94;101693.13;6262558;28;20052;-70
2022/05/04 07:51:04;;;;;;;3.20;1.40;;;;;;;9.40;91.61;101696.25;6250712;28;20065;-70
2022/05/04 07:54:06;;;;;;;8.07;2.55;;;;;;;9.44;92.60;101690.88;6251247;28;20053;-70
2022/05/04 07:57:08;;;;;;;2.90;1.77;;;;;;;9.44;92.41;101691.75;6251206;28;20524;-70
2022/05/04 08:06:49;;;;;;;6.50;2.08;;;;;;;9.80;88.07;101708.00;6252305;28;20128;-72
2022/05/04 08:09:50;;;;;;;2.50;2.05;;;;;;;9.74;86.12;101707.38;6250518;28;20065;-70
2022/05/04 08:12:52;;;;;;;1.77;1.05;;;;;;;9.81;88.46;101706.22;6250537;28;20060;-70
2022/05/04 08:15:55;;;;;;;1.23;0.90;;;;;;;9.95;89.01;101705.75;6250837;28;20146;-71
2022/05/04 08:18:56;;;;;;;3.72;1.48;;;;;;;9.98;86.70;101706.50;6250966;28;20508;-71
2022/05/04 08:21:57;;;;;;;5.97;1.17;;;;;;;9.89;86.78;101704.19;6261443;28;20048;-73
2022/05/04 08:24:59;;;;;;;6.13;1.20;;;;;;;10.03;85.34;101706.34;6275619;28;20053;-70
2022/05/04 08:28:00;;;;;;;2.08;1.25;;;;;;;10.12;86.47;101704.25;6275254;28;20115;-71
2022/05/04 08:31:03;;;;;;;5.22;1.63;;;;;;;9.99;86.48;101707.34;6274260;28;20049;-71
2022/05/04 08:34:05;;;;;;;7.15;2.17;;;;;;;10.05;88.53;101704.53;6260855;28;20106;-71
2022/05/04 08:37:07;;;;;;;5.05;1.50;;;;;;;10.12;88.00;101698.97;6260276;28;20051;-70
2022/05/04 08:40:09;;;;;;;1.90;1.48;;;;;;;10.11;85.99;101699.91;6261793;28;20504;-71
2022/05/04 08:43:13;;;;;;;1.15;1.05;;;;;;;10.09;86.01;101695.63;6258655;28;20129;-71
2022/05/04 08:46:16;;;;;;;1.65;0.75;;;;;;;10.25;89.65;101699.44;6257343;28;20050;-70
2022/05/04 08:49:19;;;;;;;1.70;1.13;;;;;;;10.13;87.25;101694.63;6260743;28;20503;-70
2022/05/04 08:52:22;;;;;;;1.27;0.88;;;;;;;10.12;88.65;101695.50;6259508;28;20560;-71
2022/05/04 08:55:24;;;;;;;3.55;1.13;;;;;;;10.33;88.59;101689.50;6261252;28;20053;-71
2022/05/04 08:58:26;;;;;;;2.90;2.35;;;;;;;10.33;84.36;101699.16;6262762;28;20420;-70
2022/05/04 09:01:29;;;;;;;6.28;1.80;;;;;;;10.43;87.17;101690.00;6259975;28;20048;-70
2022/05/04 09:04:30;;;;;;;1.02;0.95;;;;;;;10.72;84.67;101701.19;6256323;28;20511;-71
2022/05/04 09:07:31;;;;;;;3.22;1.10;;;;;;;10.87;83.40;101696.19;6274400;28;20049;-70
2022/05/04 09:10:38;;;;;;;1.73;1.25;;;;;;;10.96;83.96;101692.34;6273361;28;20671;-71
2022/05/04 09:13:47;;;;;;;3.70;1.52;;;;;;;10.87;83.10;101690.94;6274164;28;20053;-70
2022/05/04 09:16:49;;;;;;;4.03;1.20;;;;;;;10.79;83.38;101689.53;6273647;28;20056;-70
2022/05/04 09:20:45;;;;;;;4.85;1.30;;;;;;;10.90;83.33;101679.44;6273252;28;20051;-70
2022/05/04 09:23:19;;;;;;;4.63;1.35;;;;;;;11.05;83.23;101681.47;6268269;28;20049;-70
2022/05/04 09:26:22;;;;;;;1.52;0.70;;;;;;;11.06;85.24;101683.16;6273556;28;20508;-71
2022/05/04 09:29:34;;;;;;;1.55;1.10;;;;;;;11.05;82.83;101686.72;6264996;28;20422;-70
2022/05/04 09:32:39;;;;;;;0.80;0.80;;;;;;;11.10;83.61;101684.75;6248402;28;20053;-70
2022/05/04 09:35:43;;;;;;;2.95;1.40;;;;;;;11.02;82.37;101678.09;6264065;28;20047;-71
2022/05/04 09:45:29;;;;;;;2.20;1.13;;;;;;;11.16;83.06;101663.44;6266272;28;20048;-71
2022/05/04 09:48:34;;;;;;;4.30;1.15;;;;;;;11.27;84.19;101662.19;6271766;28;20049;-70
2022/05/04 09:51:36;;;;;;;5.18;1.52;;;;;;;11.40;85.50;101664.22;6273184;28;20059;-71
2022/05/04 09:54:37;;;;;;;3.22;1.50;;;;;;;11.58;84.73;101662.59;6272425;28;20068;-70
2022/05/04 09:57:39;;;;;;;4.90;1.60;;;;;;;11.64;81.91;101659.69;6273068;28;20044;-71
2022/05/04 10:00:41;;;;;;;4.75;1.08;;;;;;;11.76;78.96;101657.44;6272169;28;20053;-71
2022/05/04 10:03:43;;;;;;;3.22;1.25;;;;;;;11.79;80.44;101652.03;6272832;28;20060;-70
2022/05/04 10:06:45;;;;;;;4.75;1.20;;;;;;;11.81;80.03;101655.44;6272850;28;20060;-70
2022/05/04 10:09:47;;;;;;;2.35;1.83;;;;;;;11.75;79.40;101653.09;6272468;28;20052;-72
2022/05/04 10:12:49;;;;;;;3.10;1.40;;;;;;;11.73;80.14;101645.28;6272210;28;20416;-70
2022/05/04 10:15:53;;;;;;;3.10;1.30;;;;;;;11.84;80.77;101640.41;6257733;28;20052;-70
2022/05/04 10:18:58;;;;;;;3.60;1.80;;;;;;;11.97;78.76;101639.88;6247885;28;20052;-70
2022/05/04 10:22:01;;;;;;;2.60;1.50;;;;;;;11.91;79.00;101648.91;6259128;28;20044;-69
2022/05/04 10:25:05;;;;;;;7.35;1.50;;;;;;;12.00;79.74;101651.13;6272229;28;20061;-70
2022/05/04 10:28:08;;;;;;;8.00;1.52;;;;;;;12.39;80.64;101642.31;6272528;28;20492;-68
2022/05/04 10:31:12;;;;;;;5.82;2.40;;;;;;;12.77;78.06;101643.16;6271599;28;20052;-71
2022/05/04 10:34:15;;;;;;;2.25;1.35;;;;;;;13.01;77.03;101635.81;6270636;28;20514;-73
2022/05/04 10:37:20;;;;;;;3.58;1.70;;;;;;;13.17;75.38;101638.53;6269533;28;20057;-72
2022/05/04 10:40:25;;;;;;;1.83;1.13;;;;;;;13.07;75.04;101622.31;6267606;28;20060;-73
2022/05/04 10:43:35;;;;;;;6.53;1.38;;;;;;;13.26;74.89;101626.72;6269848;28;20059;-73
2022/05/04 10:46:40;;;;;;;3.00;1.40;;;;;;;13.21;73.30;101625.13;6270028;28;20068;-73
2022/05/04 10:49:43;;;;;;;4.38;2.08;;;;;;;13.06;73.13;101615.34;6270681;28;20420;-72
2022/05/04 10:52:47;;;;;;;5.45;2.15;;;;;;;13.17;75.07;101626.22;6271446;28;20405;-71
2022/05/04 10:55:56;;;;;;;5.60;1.73;;;;;;;13.05;76.84;101616.28;6272058;28;20412;-73
2022/05/04 10:58:59;;;;;;;;;;;;;;;12.95;75.40;101612.41;6260669;28;20048;-73
2022/05/04 11:02:04;;;;;;;7.15;1.70;;;;;;;12.80;74.63;101621.03;6246506;28;19944;-72
2022/05/04 11:05:14;;;;;;;2.72;1.50;;;;;;;12.89;77.92;101610.88;6246905;28;20049;-73
2022/05/04 11:08:24;;;;;;;4.55;1.52;;;;;;;12.97;76.63;101613.16;6250128;28;20045;-73
2022/05/04 11:11:26;;;;;;;5.28;1.65;;;;;;;13.18;76.09;101616.53;6270879;28;20052;-73
2022/05/04 11:14:28;;;;;;;4.57;1.75;;;;;;;13.36;75.58;101605.06;6252152;28;20060;-72
2022/05/04 11:17:33;;;;;;;3.42;1.60;;;;;;;13.48;75.19;101605.34;6246748;28;20052;-73
2022/05/04 11:20:36;;;;;;;2.63;1.65;;;;;;;13.83;73.41;101603.50;6246506;28;20050;-74
2022/05/04 11:23:38;;;;;;;3.28;1.40;;;;;;;14.31;72.88;101589.44;6271362;28;20124;-73
2022/05/04 11:26:41;;;;;;;3.40;1.85;;;;;;;14.57;68.47;101606.50;6270880;28;20049;-72
2022/05/04 11:29:42;;;;;;;4.45;1.73;;;;;;;14.42;67.45;101600.25;6270774;28;20037;-73
2022/05/04 11:32:43;;;;;;;3.72;1.88;;;;;;;15.23;68.02;101592.13;6269628;28;20057;-73
2022/05/04 11:35:52;;;;;;;4.57;1.65;;;;;;;15.15;65.11;101599.66;6266929;28;20057;-73
2022/05/04 11:38:54;;;;;;;3.53;1.45;;;;;;;15.52;66.93;101597.47;6271154;28;20048;-73
2022/05/04 11:41:57;;;;;;;8.40;2.03;;;;;;;16.17;65.68;101590.78;6270399;28;20044;-71
2022/05/04 11:44:58;;;;;;;8.38;2.40;;;;;;;15.72;62.01;101591.84;6271339;28;20056;-71
2022/05/04 11:48:03;;;;;;;4.78;1.50;;;;;;;15.39;64.85;101590.25;6270334;28;20424;-72
2022/05/04 11:51:06;;;;;;;4.10;2.00;;;;;;;15.14;65.23;101585.56;6264624;28;20049;-71
2022/05/04 11:54:08;;;;;;;2.83;1.70;;;;;;;15.81;63.68;101585.97;6264373;28;20049;-70
2022/05/04 11:57:11;;;;;;;4.82;1.75;;;;;;;15.73;64.58;101585.59;6247257;28;20045;-70
2022/05/04 12:00:14;;;;;;;5.10;2.03;;;;;;;16.18;62.68;101584.50;6270599;28;20049;-71
2022/05/04 12:03:16;;;;;;;3.38;1.67;;;;;;;16.56;63.69;101573.22;6268795;28;20053;-71
2022/05/04 12:06:20;;;;;;;5.43;2.08;;;;;;;16.71;61.24;101568.72;6270932;28;20049;-71
2022/05/04 12:09:21;;;;;;;4.68;2.20;;;;;;;16.49;60.13;101577.25;6270341;28;20045;-71
2022/05/04 12:12:24;;;;;;;5.97;2.25;;;;;;;16.31;62.89;101570.47;6253449;28;20053;-71
2022/05/04 12:15:27;;;;;;;4.72;2.28;;;;;;;16.86;59.57;101559.78;6245818;28;20381;-69
2022/05/04 12:18:30;;;;;;;5.80;2.20;;;;;;;17.69;57.80;101554.09;6247812;28;20049;-71
2022/05/04 12:21:32;;;;;;;7.40;2.35;;;;;;;18.38;53.12;101559.81;6257938;28;20127;-71
2022/05/04 12:24:34;;;;;;;6.72;2.08;;;;;;;18.59;49.74;101552.06;6259883;28;20456;-73
2022/05/04 12:27:38;;;;;;;4.50;2.20;;;;;;;17.67;55.74;101545.41;6271710;28;20050;-73
2022/05/04 12:34:00;;;;;;;3.08;2.20;;;;;;;17.05;54.97;101546.13;6250606;28;20045;-73
2022/05/04 12:37:04;;;;;;;4.90;2.00;;;;;;;17.18;54.90;101543.47;6273404;28;20045;-73
2022/05/04 12:40:06;;;;;;;4.70;2.58;;;;;;;17.30;54.25;101539.13;6274966;28;20065;-73
2022/05/04 12:43:08;;;;;;;3.83;2.05;;;;;;;16.99;54.55;101534.09;6273547;28;20049;-74
2022/05/04 12:46:10;;;;;;;4.90;2.28;;;;;;;17.77;53.21;101535.00;6274512;28;20049;-72
2022/05/04 12:49:14;;;;;;;8.05;3.03;;;;;;;17.66;51.91;101533.88;6268259;28;20053;-71
2022/05/04 12:52:17;;;;;;;6.47;2.17;;;;;;;17.52;53.74;101530.50;6272585;28;20463;-72
2022/05/04 12:55:19;;;;;;;5.25;2.35;;;;;;;17.18;56.00;101539.00;6274640;28;20049;-72
2022/05/04 12:58:21;;;;;;;4.45;2.35;;;;;;;17.79;53.94;101525.09;6274684;28;20416;-72
2022/05/04 13:01:24;;;;;;;4.47;2.22;;;;;;;17.29;55.01;101529.44;6249414;28;20554;-73
2022/05/04 13:04:25;;;;;;;6.88;2.33;;;;;;;17.30;54.11;101525.81;6249900;28;20586;-73
2022/05/04 13:07:28;;;;;;;5.78;2.55;;;;;;;18.63;52.44;101519.78;6258554;28;20409;-73
2022/05/04 13:10:30;;;;;;;4.72;2.17;;;;;;;18.77;50.77;101517.94;6274024;28;20052;-71
2022/05/04 13:13:32;;;;;;;5.10;2.22;;;;;;;17.78;53.71;101510.09;6253788;28;20694;-71
2022/05/04 13:16:33;;;;;;;3.72;2.30;;;;;;;16.96;55.19;101518.38;6249998;28;20041;-70
2022/05/04 13:19:36;;;;;;;5.90;2.30;;;;;;;16.56;56.00;101504.22;6249387;28;20046;-70
2022/05/04 13:22:38;;;;;;;7.07;3.22;;;;;;;16.17;57.09;101503.25;6247074;28;20394;-70
2022/05/04 13:25:40;;;;;;;4.55;2.55;;;;;;;16.26;58.92;101503.59;6248435;28;20054;-70
2022/05/04 13:28:41;;;;;;;5.45;2.10;;;;;;;16.21;60.13;101504.78;6249010;28;20417;-70
2022/05/04 13:31:42;;;;;;;5.68;2.60;;;;;;;15.90;60.35;101503.22;6247488;28;20437;-71
2022/05/04 13:34:44;;;;;;;5.10;2.80;;;;;;;15.76;60.08;101489.13;6248915;28;20057;-70
2022/05/04 13:37:46;;;;;;;3.75;1.73;;;;;;;15.68;61.16;101493.13;6249282;28;20056;-71
2022/05/04 13:40:48;;;;;;;5.40;2.17;;;;;;;15.83;61.59;101493.94;6248183;28;20072;-71
2022/05/04 13:43:49;;;;;;;6.30;2.90;;;;;;;16.07;61.37;101490.66;6249126;28;20056;-71
2022/05/04 13:46:51;;;;;;;9.52;4.63;;;;;;;18.30;51.92;101491.19;6250181;28;20065;-70
2022/05/04 13:49:52;;;;;;;3.97;2.25;;;;;;;18.81;51.40;101498.09;6248617;28;20046;-71
2022/05/04 13:56:15;;;;;;;5.25;1.90;;;;;;;22.54;37.85;101478.25;6248597;28;20424;-71
2022/05/04 13:59:16;;;;;;;4.28;1.98;;;;;;;23.24;36.50;101478.00;6248489;28;20041;-71
2022/05/04 14:02:17;;;;;;;3.35;2.28;;;;;;;23.76;35.21;101479.22;6247854;28;20068;-71
2022/05/04 14:05:20;;;;;;;2.83;1.90;;;;;;;22.75;36.51;101483.44;6248339;28;20064;-70
2022/05/04 14:08:22;;;;;;;4.90;2.15;;;;;;;22.85;36.71;101483.44;6248497;28;20054;-70
2022/05/04 14:11:24;;;;;;;9.93;2.33;;;;;;;23.25;37.93;101475.16;6247452;28;20053;-70
2022/05/04 14:17:44;;;;;;;2.88;1.75;;;;;;;24.75;33.26;101465.78;6249097;28;20092;-71
2022/05/04 14:20:46;;;;;;;2.13;1.35;;;;;;;24.98;33.71;101465.22;6247484;28;20528;-70
2022/05/04 14:23:49;;;;;;;3.42;1.25;;;;;;;24.73;35.77;101465.06;6246151;28;20049;-70
2022/05/04 14:26:51;;;;;;;3.13;1.77;;;;;;;24.28;34.58;101462.47;6248058;28;20049;-71
2022/05/04 14:29:52;;;;;;;4.28;1.95;;;;;;;23.58;34.91;101469.41;6247500;28;20523;-70
2022/05/04 14:32:54;;;;;;;2.58;1.60;;;;;;;22.63;36.37;101465.84;6247634;28;20056;-70
2022/05/04 14:35:55;;;;;;;6.35;2.67;;;;;;;22.83;36.85;101461.28;6247475;28;20053;-71
2022/05/04 14:38:58;;;;;;;3.15;1.60;;;;;;;22.49;37.23;101455.56;6247845;28;20061;-70
2022/05/04 14:41:59;;;;;;;5.55;1.80;;;;;;;21.59;39.36;101451.19;6246482;28;20060;-70
2022/05/04 14:45:01;;;;;;;3.80;1.63;;;;;;;19.32;43.66;101463.91;6247440;28;20045;-71
2022/05/04 14:48:02;;;;;;;3.90;1.80;;;;;;;19.30;43.85;101464.97;6270110;28;20424;-70
2022/05/04 14:51:04;;;;;;;5.72;2.03;;;;;;;18.50;45.18;101463.94;6271209;28;20045;-70
2022/05/04 14:54:06;;;;;;;2.13;1.38;;;;;;;18.94;45.18;101456.22;6272078;28;20051;-70
2022/05/04 14:57:08;;;;;;;3.30;1.60;;;;;;;19.58;42.20;101458.31;6271751;28;20056;-70